createdAt,value
2018-09-20T00:01:18.176Z,6.30
2018-09-20T00:03:47.147Z,6.03
2018-09-20T00:06:16.765Z,5.70
2018-09-20T00:08:44.891Z,5.77
2018-09-20T00:11:13.725Z,5.80
2018-09-20T00:13:43.365Z,6.70
2018-09-20T00:16:13.286Z,5.80
2018-09-20T00:18:42.971Z,5.83
2018-09-20T00:21:11.836Z,5.10
2018-09-20T00:23:50.590Z,5.63
2018-09-20T00:26:20.746Z,5.53
2018-09-20T00:28:51.035Z,6.40
2018-09-20T00:31:21.470Z,5.80
2018-09-20T00:33:50.033Z,6.07
2018-09-20T00:36:19.287Z,5.80
2018-09-20T00:38:47.918Z,6.13
2018-09-20T00:41:16.967Z,6.70
2018-09-20T00:43:48.577Z,6.43
2018-09-20T00:46:18.835Z,6.33
2018-09-20T00:48:46.925Z,6.60
2018-09-20T00:51:16.484Z,6.87
2018-09-20T00:53:44.596Z,6.30
2018-09-20T00:56:12.649Z,6.53
2018-09-20T00:58:41.334Z,6.70
2018-09-20T01:01:09.632Z,6.70
2018-09-20T01:03:38.514Z,6.00
2018-09-20T01:06:10.630Z,6.10
2018-09-20T01:08:40.289Z,6.43
2018-09-20T01:11:08.533Z,6.10
2018-09-20T01:13:37.720Z,6.17
2018-09-20T01:16:07.178Z,5.93
2018-09-20T01:18:37.998Z,6.10
2018-09-20T01:21:06.644Z,5.93
2018-09-20T01:23:35.349Z,5.80
2018-09-20T01:26:04.765Z,6.43
2018-09-20T01:28:34.399Z,6.63
2018-09-20T01:31:03.297Z,6.50
2018-09-20T01:33:32.417Z,6.10
2018-09-20T01:36:00.810Z,6.67
2018-09-20T01:38:30.349Z,6.73
2018-09-20T01:40:58.679Z,6.57
2018-09-20T01:43:26.788Z,6.10
2018-09-20T01:45:55.594Z,6.53
2018-09-20T01:48:25.433Z,6.80
2018-09-20T01:50:53.519Z,6.40
2018-09-20T01:53:21.907Z,7.17
2018-09-20T01:55:50.157Z,6.47
2018-09-20T01:58:18.308Z,7.07
2018-09-20T02:00:47.868Z,7.07
2018-09-20T02:03:17.497Z,6.30
2018-09-20T02:05:45.639Z,6.00
2018-09-20T02:08:16.717Z,6.07
2018-09-20T02:10:44.870Z,7.20
2018-09-20T02:13:12.902Z,6.93
2018-09-20T02:15:41.720Z,7.20
2018-09-20T02:18:11.523Z,6.87
2018-09-20T02:20:39.918Z,6.37
2018-09-20T02:23:09.090Z,6.53
2018-09-20T02:25:37.088Z,6.30
2018-09-20T02:28:05.983Z,6.03
2018-09-20T02:30:33.953Z,6.23
2018-09-20T02:33:02.108Z,6.30
2018-09-20T02:35:30.866Z,6.43
2018-09-20T02:37:59.884Z,6.87
2018-09-20T02:40:29.699Z,6.67
2018-09-20T02:42:59.024Z,7.00
2018-09-20T02:45:28.605Z,6.90
2018-09-20T02:47:56.599Z,6.97
2018-09-20T02:50:25.740Z,7.27
2018-09-20T02:52:53.745Z,7.57
2018-09-20T02:55:25.386Z,7.67
2018-09-20T02:57:54.035Z,7.07
2018-09-20T03:00:22.122Z,7.13
2018-09-20T03:02:51.046Z,7.20
2018-09-20T03:05:23.214Z,7.00
2018-09-20T03:07:51.760Z,7.20
2018-09-20T03:10:21.001Z,7.20
2018-09-20T03:12:49.034Z,7.60
2018-09-20T03:16:47.041Z,6.70
2018-09-20T03:19:16.053Z,7.10
2018-09-20T03:21:44.791Z,7.23
2018-09-20T03:24:12.923Z,7.10
2018-09-20T03:26:41.190Z,6.60
2018-09-20T03:29:09.495Z,7.03
2018-09-20T03:31:38.758Z,6.93
2018-09-20T03:34:08.394Z,7.80
2018-09-20T03:36:36.383Z,7.20
2018-09-20T03:39:09.092Z,6.83
2018-09-20T03:41:40.077Z,6.73
2018-09-20T03:44:08.404Z,7.30
2018-09-20T03:46:36.808Z,7.43
2018-09-20T03:49:05.487Z,7.50
2018-09-20T03:51:33.897Z,7.57
2018-09-20T03:54:03.455Z,7.87
2018-09-20T03:56:35.587Z,7.87
2018-09-20T03:59:05.981Z,7.17
2018-09-20T04:01:41.165Z,7.63
2018-09-20T04:04:20.111Z,7.90
2018-09-20T04:06:49.393Z,8.00
2018-09-20T04:09:17.545Z,7.17
2018-09-20T04:11:45.864Z,7.70
2018-09-20T04:14:15.750Z,8.07
2018-09-20T04:16:45.529Z,8.00
2018-09-20T04:19:15.261Z,10.93
2018-09-20T04:21:44.878Z,8.87
2018-09-20T04:24:13.205Z,8.03
2018-09-20T04:26:41.259Z,8.00
2018-09-20T04:29:13.509Z,7.73
2018-09-20T04:31:41.715Z,8.83
2018-09-20T04:34:11.234Z,8.33
2018-09-20T04:37:21.895Z,8.93
2018-09-20T04:40:06.038Z,8.77
2018-09-20T04:42:49.253Z,8.37
2018-09-20T04:45:18.215Z,8.57
2018-09-20T04:47:46.369Z,9.10
2018-09-20T04:50:16.276Z,8.17
2018-09-20T04:52:46.216Z,9.37
2018-09-20T04:55:16.466Z,10.27
2018-09-20T04:57:45.181Z,8.80
2018-09-20T05:00:15.326Z,8.87
2018-09-20T05:02:43.315Z,9.00
2018-09-20T05:05:11.953Z,8.77
2018-09-20T05:07:41.643Z,8.53
2018-09-20T05:10:09.791Z,8.37
2018-09-20T05:12:46.635Z,9.77
2018-09-20T05:15:15.302Z,10.20
2018-09-20T05:17:45.216Z,9.97
2018-09-20T05:20:31.260Z,8.87
2018-09-20T05:23:00.693Z,8.70
2018-09-20T05:25:35.699Z,9.40
2018-09-20T05:28:08.083Z,9.87
2018-09-20T05:37:16.365Z,8.97
2018-09-20T05:39:44.947Z,9.07
2018-09-20T05:42:12.913Z,8.37
2018-09-20T05:44:40.917Z,8.87
2018-09-20T05:47:12.006Z,9.23
2018-09-20T05:49:39.881Z,8.93
2018-09-20T05:52:08.506Z,8.70
2018-09-20T05:54:36.892Z,9.93
2018-09-20T05:57:05.155Z,9.23
2018-09-20T05:59:34.569Z,8.50
2018-09-20T06:02:03.109Z,9.17
2018-09-20T06:04:33.023Z,9.17
2018-09-20T06:07:00.937Z,8.73
2018-09-20T06:09:28.857Z,9.00
2018-09-20T06:11:57.556Z,8.27
2018-09-20T06:14:26.462Z,8.40
2018-09-20T06:16:54.458Z,8.43
2018-09-20T06:19:23.511Z,8.57
2018-09-20T06:21:51.679Z,9.60
2018-09-20T06:24:19.774Z,8.40
2018-09-20T06:26:47.713Z,8.83
2018-09-20T06:29:15.691Z,8.70
2018-09-20T06:31:44.253Z,9.60
2018-09-20T06:34:13.044Z,9.37
2018-09-20T06:36:41.923Z,9.30
2018-09-20T06:39:12.148Z,9.10
2018-09-20T06:41:42.426Z,9.27
2018-09-20T06:44:10.534Z,8.60
2018-09-20T06:46:39.370Z,8.47
2018-09-20T06:49:13.337Z,8.13
2018-09-20T06:51:42.798Z,8.20
2018-09-20T06:54:10.777Z,8.60
2018-09-20T06:56:38.922Z,8.50
2018-09-20T06:59:07.925Z,9.37
2018-09-20T07:01:35.916Z,10.23
2018-09-20T07:04:04.353Z,10.83
2018-09-20T07:06:35.005Z,9.23
2018-09-20T07:09:04.619Z,13.47
2018-09-20T07:11:34.117Z,9.30
2018-09-20T07:14:02.078Z,8.50
2018-09-20T07:16:30.893Z,7.83
2018-09-20T07:19:00.835Z,9.23
2018-09-20T07:21:30.498Z,9.63
2018-09-20T07:25:01.868Z,7.70
2018-09-20T07:27:30.814Z,8.43
2018-09-20T07:29:59.714Z,9.20
2018-09-20T07:32:28.247Z,8.97
2018-09-20T07:34:56.256Z,8.33
2018-09-20T07:37:25.017Z,8.37
2018-09-20T07:39:53.745Z,8.20
2018-09-20T07:42:21.778Z,8.70
2018-09-20T07:44:49.754Z,8.57
2018-09-20T07:47:18.422Z,8.53
2018-09-20T07:49:47.525Z,8.63
2018-09-20T07:52:16.429Z,8.10
2018-09-20T07:54:44.986Z,7.60
2018-09-20T07:57:14.570Z,7.67
2018-09-20T07:59:45.691Z,7.90
2018-09-20T08:02:14.993Z,8.23
2018-09-20T08:04:44.434Z,8.03
2018-09-20T08:07:12.460Z,7.53
2018-09-20T08:09:41.443Z,6.77
2018-09-20T08:12:11.502Z,6.00
2018-09-20T08:14:42.531Z,5.97
2018-09-20T08:17:12.663Z,5.93
2018-09-20T08:19:44.161Z,6.10
2018-09-20T08:22:13.807Z,6.17
2018-09-20T08:24:41.855Z,6.13
2018-09-20T08:27:11.449Z,5.27
2018-09-20T08:29:41.442Z,4.47
2018-09-20T08:32:09.407Z,4.73
2018-09-20T08:34:37.524Z,4.73
2018-09-20T08:37:06.285Z,4.00
2018-09-20T08:39:34.457Z,4.10
2018-09-20T08:42:02.641Z,4.13
2018-09-20T08:44:30.613Z,4.13
2018-09-20T08:47:00.082Z,4.50
2018-09-20T08:49:28.365Z,4.40
2018-09-20T08:51:56.844Z,4.53
2018-09-20T08:54:26.756Z,4.40
2018-09-20T08:56:54.938Z,4.43
2018-09-20T08:59:23.497Z,4.07
2018-09-20T09:01:55.485Z,4.33
2018-09-20T09:04:23.505Z,4.30
2018-09-20T09:06:51.985Z,4.80
2018-09-20T09:09:22.808Z,5.00
2018-09-20T09:11:50.801Z,4.43
2018-09-20T09:14:19.727Z,4.60
2018-09-20T09:16:47.669Z,4.70
2018-09-20T09:19:17.295Z,4.37
2018-09-20T09:21:46.269Z,4.27
2018-09-20T09:24:15.273Z,4.33
2018-09-20T09:26:43.404Z,4.83
2018-09-20T09:29:14.887Z,4.60
2018-09-20T09:31:42.813Z,3.83
2018-09-20T09:34:12.028Z,4.80
2018-09-20T09:36:40.936Z,3.80
2018-09-20T09:39:11.685Z,3.80
2018-09-20T09:41:40.453Z,3.60
2018-09-20T09:44:09.334Z,3.60
2018-09-20T09:46:37.257Z,3.40
2018-09-20T09:49:05.928Z,3.97
2018-09-20T09:51:35.665Z,4.33
2018-09-20T09:54:03.858Z,3.97
2018-09-20T09:56:32.672Z,3.60
2018-09-20T09:59:02.213Z,3.93
2018-09-20T10:01:30.173Z,4.10
2018-09-20T10:03:59.737Z,4.30
2018-09-20T10:06:28.373Z,4.20
2018-09-20T10:08:56.381Z,4.07
2018-09-20T10:11:24.278Z,4.17
2018-09-20T10:13:52.928Z,4.00
2018-09-20T10:16:24.549Z,4.37
2018-09-20T10:18:53.285Z,4.23
2018-09-20T10:21:21.352Z,4.73
2018-09-20T10:23:49.983Z,4.00
2018-09-20T10:26:18.477Z,3.93
2018-09-20T10:28:47.190Z,3.93
2018-09-20T10:31:15.814Z,4.30
2018-09-20T10:33:47.437Z,4.27
2018-09-20T10:36:16.488Z,4.70
2018-09-20T10:38:45.374Z,4.93
2018-09-20T10:41:13.451Z,3.83
2018-09-20T10:43:43.806Z,3.87
2018-09-20T10:46:11.723Z,3.73
2018-09-20T10:48:41.849Z,4.23
2018-09-20T10:51:09.790Z,3.90
2018-09-20T10:53:37.754Z,4.13
2018-09-20T10:56:05.798Z,3.90
2018-09-20T10:58:34.403Z,4.40
2018-09-20T11:01:02.429Z,4.00
2018-09-20T11:03:32.387Z,3.67
2018-09-20T11:06:01.160Z,4.27
2018-09-20T11:08:29.989Z,3.90
2018-09-20T11:10:58.091Z,3.87
2018-09-20T11:13:29.929Z,3.77
2018-09-20T11:16:01.002Z,3.80
2018-09-20T11:18:29.127Z,4.20
2018-09-20T11:20:58.637Z,4.40
2018-09-20T11:23:26.698Z,4.23
2018-09-20T11:25:55.864Z,4.30
2018-09-20T11:28:23.937Z,4.03
2018-09-20T11:30:53.917Z,3.43
2018-09-20T11:33:22.502Z,4.90
2018-09-20T11:35:51.222Z,3.57
2018-09-20T11:38:19.813Z,4.63
2018-09-20T11:40:49.299Z,3.90
2018-09-20T11:43:21.484Z,3.70
2018-09-20T11:45:49.478Z,3.57
2018-09-20T11:48:18.914Z,3.77
2018-09-20T11:50:46.844Z,3.73
2018-09-20T11:53:16.528Z,4.10
2018-09-20T11:55:44.806Z,4.37
2018-09-20T11:58:13.740Z,3.87
2018-09-20T12:00:44.773Z,4.20
2018-09-20T12:03:12.928Z,3.80
2018-09-20T12:05:40.936Z,4.03
2018-09-20T12:08:12.412Z,4.40
2018-09-20T12:10:43.498Z,3.80
2018-09-20T12:13:13.552Z,3.33
2018-09-20T12:15:45.211Z,4.13
2018-09-20T12:18:13.128Z,3.80
2018-09-20T12:20:42.806Z,3.27
2018-09-20T12:23:10.750Z,3.60
2018-09-20T12:25:38.724Z,3.80
2018-09-20T12:28:10.766Z,3.80
2018-09-20T12:30:42.078Z,4.03
2018-09-20T12:33:10.570Z,4.07
2018-09-20T12:35:38.827Z,3.80
2018-09-20T12:38:11.397Z,4.00
2018-09-20T12:40:42.890Z,3.97
2018-09-20T12:43:13.326Z,3.60
2018-09-20T12:45:42.563Z,4.17
2018-09-20T12:48:12.409Z,4.07
2018-09-20T12:50:46.139Z,3.80
2018-09-20T12:53:16.573Z,8.17
2018-09-20T12:58:27.161Z,4.70
2018-09-20T13:00:55.438Z,4.30
2018-09-20T13:03:24.648Z,4.53
2018-09-20T13:06:00.497Z,4.40
2018-09-20T13:08:31.887Z,4.17
2018-09-20T13:11:00.751Z,4.50
2018-09-20T13:13:32.043Z,3.80
2018-09-20T13:16:14.731Z,3.37
2018-09-20T13:18:43.770Z,7.43
2018-09-20T13:21:13.356Z,4.43
2018-09-20T13:23:42.319Z,3.53
2018-09-20T13:26:11.014Z,3.77
2018-09-20T13:28:40.741Z,3.63
2018-09-20T13:31:10.291Z,3.60
2018-09-20T13:33:43.257Z,3.83
2018-09-20T13:36:12.425Z,3.53
2018-09-20T13:38:41.597Z,5.13
2018-09-20T13:41:10.105Z,4.77
2018-09-20T13:43:39.717Z,13.60
2018-09-20T13:46:08.369Z,3.97
2018-09-20T13:48:38.733Z,4.57
2018-09-20T13:51:06.787Z,3.87
2018-09-20T13:53:35.719Z,3.80
2018-09-20T13:56:07.961Z,3.40
2018-09-20T13:58:36.281Z,3.40
2018-09-20T14:01:04.856Z,3.60
2018-09-20T14:03:32.917Z,3.57
2018-09-20T14:06:03.454Z,6.50
2018-09-20T14:08:32.551Z,7.50
2018-09-20T14:11:00.786Z,4.23
2018-09-20T14:13:29.735Z,4.73
2018-09-20T14:15:59.081Z,6.07
2018-09-20T14:18:28.084Z,3.90
2018-09-20T14:20:56.886Z,4.00
2018-09-20T14:23:24.926Z,3.73
2018-09-20T14:25:54.103Z,3.73
2018-09-20T14:28:22.274Z,3.77
2018-09-20T14:30:51.485Z,3.50
2018-09-20T14:33:20.871Z,3.50
2018-09-20T14:35:49.602Z,3.73
2018-09-20T14:38:19.861Z,3.57
2018-09-20T14:40:49.416Z,4.20
2018-09-20T14:43:17.433Z,3.63
2018-09-20T14:45:46.718Z,4.10
2018-09-20T14:48:15.542Z,3.80
2018-09-20T14:50:45.459Z,3.40
2018-09-20T14:53:13.706Z,3.13
2018-09-20T14:55:41.842Z,3.50
2018-09-20T14:58:09.814Z,3.53
2018-09-20T15:00:37.738Z,3.27
2018-09-20T15:03:05.819Z,3.33
2018-09-20T15:05:35.432Z,3.70
2018-09-20T15:08:10.020Z,3.67
2018-09-20T15:10:38.778Z,3.40
2018-09-20T15:13:07.241Z,3.27
2018-09-20T15:15:35.430Z,3.27
2018-09-20T15:18:08.255Z,3.07
2018-09-20T15:20:40.031Z,3.10
2018-09-20T15:23:09.181Z,3.10
2018-09-20T15:25:40.981Z,3.30
2018-09-20T15:28:10.597Z,3.20
2018-09-20T15:30:39.675Z,3.43
2018-09-20T15:33:09.471Z,3.33
2018-09-20T15:35:55.580Z,3.30
2018-09-20T15:38:35.353Z,2.87
2018-09-20T15:41:06.397Z,3.40
2018-09-20T15:43:35.370Z,2.83
2018-09-20T15:46:06.476Z,3.50
2018-09-20T15:48:47.564Z,3.43
2018-09-20T15:51:19.400Z,3.10
2018-09-20T15:53:48.892Z,3.13
2018-09-20T15:56:16.827Z,3.07
2018-09-20T15:58:47.434Z,3.10
2018-09-20T16:04:16.774Z,3.77
2018-09-20T16:06:44.781Z,3.20
2018-09-20T16:09:15.016Z,3.17
2018-09-20T16:11:44.303Z,3.63
2018-09-20T16:14:13.185Z,3.57
2018-09-20T16:16:43.023Z,3.13
2018-09-20T16:19:11.289Z,3.77
2018-09-20T16:21:40.365Z,3.50
2018-09-20T16:24:13.057Z,3.57
2018-09-20T16:26:42.551Z,3.83
2018-09-20T16:30:23.793Z,3.13
2018-09-20T16:33:33.728Z,3.73
2018-09-20T16:37:20.734Z,3.87
2018-09-20T16:39:55.022Z,4.43
2018-09-20T16:42:25.681Z,5.63
2018-09-20T16:44:54.780Z,3.80
2018-09-20T16:47:23.705Z,3.90
2018-09-20T16:49:52.737Z,4.07
2018-09-20T16:52:20.697Z,4.60
2018-09-20T16:54:49.635Z,4.57
2018-09-20T16:57:18.594Z,5.13
2018-09-20T16:59:46.584Z,5.03
2018-09-20T17:02:16.460Z,5.37
2018-09-20T17:04:46.196Z,5.00
2018-09-20T17:07:16.186Z,5.40
2018-09-20T17:09:44.203Z,5.80
2018-09-20T17:12:13.648Z,5.23
2018-09-20T17:14:41.657Z,5.73
2018-09-20T17:17:09.657Z,5.07
2018-09-20T17:19:38.243Z,6.43
2018-09-20T17:22:10.240Z,5.10
2018-09-20T17:24:44.869Z,4.83
2018-09-20T17:27:15.125Z,5.00
2018-09-20T17:29:43.841Z,4.93
2018-09-20T17:32:13.492Z,4.70
2018-09-20T17:34:44.629Z,4.67
2018-09-20T17:37:15.230Z,4.93
2018-09-20T17:39:44.567Z,5.33
2018-09-20T17:42:14.510Z,4.93
2018-09-20T17:44:43.728Z,5.60
2018-09-20T17:47:11.733Z,7.60
2018-09-20T17:49:40.365Z,12.13
2018-09-20T17:52:16.616Z,5.53
2018-09-20T17:54:47.832Z,6.20
2018-09-20T17:57:17.077Z,6.80
2018-09-20T17:59:45.889Z,6.50
2018-09-20T18:02:15.497Z,7.03
2018-09-20T18:04:43.628Z,7.20
2018-09-20T18:07:12.897Z,6.30
2018-09-20T18:09:41.581Z,6.00
2018-09-20T18:12:12.511Z,6.30
2018-09-20T18:14:46.116Z,6.40
2018-09-20T18:17:15.658Z,6.03
2018-09-20T18:19:49.045Z,5.87
2018-09-20T18:22:17.146Z,7.07
2018-09-20T18:24:45.339Z,6.63
2018-09-20T18:27:14.247Z,6.00
2018-09-20T18:29:42.762Z,6.70
2018-09-20T18:32:10.697Z,6.77
2018-09-20T18:34:38.774Z,6.07
2018-09-20T18:37:07.667Z,6.07
2018-09-20T18:39:37.336Z,5.70
2018-09-20T18:42:10.607Z,5.87
2018-09-20T18:44:41.509Z,5.63
2018-09-20T18:47:09.402Z,6.10
2018-09-20T18:49:39.842Z,5.67
2018-09-20T18:52:10.852Z,5.80
2018-09-20T18:54:38.846Z,5.47
2018-09-20T18:57:06.504Z,5.10
2018-09-20T18:59:34.512Z,5.27
2018-09-20T19:02:04.516Z,5.97
2018-09-20T19:04:33.876Z,6.03
2018-09-20T19:07:06.269Z,5.77
2018-09-20T19:09:36.569Z,5.50
2018-09-20T19:12:07.856Z,5.70
2018-09-20T19:14:38.848Z,6.03
2018-09-20T19:17:12.457Z,6.30
2018-09-20T19:19:43.688Z,5.77
2018-09-20T19:22:14.301Z,6.40
2018-09-20T19:24:44.901Z,7.80
2018-09-20T19:27:13.608Z,6.97
2018-09-20T19:29:43.570Z,6.20
2018-09-20T19:32:15.942Z,5.43
2018-09-20T19:34:44.469Z,5.50
2018-09-20T19:37:14.748Z,5.83
2018-09-20T19:39:42.673Z,5.63
2018-09-20T19:42:10.597Z,6.30
2018-09-20T19:44:40.565Z,6.63
2018-09-20T19:47:11.714Z,6.60
2018-09-20T19:49:39.751Z,7.50
2018-09-20T19:52:11.592Z,6.50
2018-09-20T19:54:47.498Z,11.37
2018-09-20T19:57:16.917Z,11.50
2018-09-20T19:59:45.953Z,7.17
2018-09-20T20:02:17.022Z,6.53
2018-09-20T20:04:46.613Z,6.00
2018-09-20T20:07:15.275Z,5.80
2018-09-20T20:09:43.729Z,6.80
2018-09-20T20:12:11.714Z,6.40
2018-09-20T20:14:39.618Z,6.17
2018-09-20T20:17:08.418Z,5.97
2018-09-20T20:19:39.472Z,6.60
2018-09-20T20:22:10.736Z,7.20
2018-09-20T20:24:41.549Z,6.70
2018-09-20T20:27:11.567Z,6.83
2018-09-20T20:29:39.686Z,6.43
2018-09-20T20:32:10.524Z,7.17
2018-09-20T20:34:38.536Z,6.60
2018-09-20T20:37:08.697Z,6.20
2018-09-20T20:39:36.674Z,6.40
2018-09-20T20:42:04.717Z,7.13
2018-09-20T20:44:32.723Z,8.67
2018-09-20T20:47:00.845Z,12.47
2018-09-20T20:49:29.389Z,12.27
2018-09-20T20:52:49.751Z,12.23
2018-09-20T20:55:23.175Z,11.73
2018-09-20T20:57:56.816Z,9.30
2018-09-20T21:00:26.015Z,9.20
2018-09-20T21:02:55.718Z,7.90
2018-09-20T21:05:25.567Z,7.50
2018-09-20T21:07:58.759Z,6.60
2018-09-20T21:10:29.830Z,7.20
2018-09-20T21:13:08.796Z,8.03
2018-09-20T21:15:41.533Z,8.00
2018-09-20T21:18:16.700Z,7.27
2018-09-20T21:20:54.666Z,7.40
2018-09-20T21:23:28.635Z,7.30
2018-09-20T21:25:59.616Z,5.70
2018-09-20T21:28:33.284Z,6.10
2018-09-20T21:31:15.870Z,7.60
2018-09-20T21:34:11.651Z,8.33
2018-09-20T21:36:44.680Z,7.97
2018-09-20T21:39:21.796Z,6.10
2018-09-20T21:41:51.363Z,5.23
2018-09-20T21:44:28.326Z,5.87
2018-09-20T21:46:58.871Z,5.50
2018-09-20T21:49:52.028Z,6.20
2018-09-20T21:52:35.770Z,6.93
2018-09-20T21:55:06.716Z,6.87
2018-09-20T21:57:36.294Z,6.07
2018-09-20T22:00:08.404Z,6.10
2018-09-20T22:02:58.722Z,6.30
2018-09-20T22:05:46.795Z,6.67
2018-09-20T22:08:16.700Z,7.00
2018-09-20T22:10:48.487Z,6.53
2018-09-20T22:13:18.382Z,6.70
2018-09-20T22:15:48.196Z,9.37
2018-09-20T22:18:37.724Z,6.90
2018-09-20T22:21:07.907Z,7.87
2018-09-20T22:23:37.327Z,6.60
2018-09-20T22:30:08.246Z,6.97
2018-09-20T22:32:41.415Z,7.40
2018-09-20T22:35:13.941Z,7.77
2018-09-20T22:37:42.761Z,7.50
2018-09-20T22:40:12.083Z,9.23
2018-09-20T22:42:57.492Z,10.70
2018-09-20T22:45:29.337Z,8.57
2018-09-20T22:47:57.961Z,9.83
2018-09-20T22:50:26.967Z,7.77
2018-09-20T22:52:56.003Z,8.23
2018-09-20T22:55:26.231Z,7.10
2018-09-20T22:57:54.898Z,7.40
2018-09-20T23:00:24.827Z,7.83
2018-09-20T23:02:55.341Z,9.70
2018-09-20T23:05:46.390Z,9.97
2018-09-20T23:08:29.313Z,9.33
2018-09-20T23:11:10.901Z,9.07
2018-09-20T23:13:43.555Z,9.57
2018-09-20T23:16:34.862Z,8.47
2018-09-20T23:19:20.087Z,7.20
2018-09-20T23:22:13.141Z,7.43
2018-09-20T23:34:52.565Z,7.53
2018-09-20T23:40:48.597Z,7.87
2018-09-20T23:46:17.780Z,7.60
2018-09-20T23:48:52.984Z,6.57
2018-09-20T23:54:09.573Z,7.10
2018-09-20T23:56:50.568Z,7.50
2018-09-20T23:59:23.376Z,7.37
